Arlington Heights, IL (60004)

9:15 PM CDT on May 04, 2015 (GMT -0500)
Arlington Heights Historical District | | Change Station
CLOSE
Current Station
Personal Weather Station
Location: Arlington Heights, IL
Elevation: 722 ft
Nearby Weather Stations

Elev 722 ft 42.09 °N, 87.99 °W | Updated 28 seconds ago

Clear
Clear
54.0 °F
Feels Like 54.0 °F
N
0.0
Wind Variable Wind from NW
Gusts 0.0 mph

Today
High -- | Low -- °F
--% Chance of Precip.
Yesterday
High -- | Low -- °F
Precip. -- in
5:44 AM 7:54 PM
Full, 99% visible
Pressure 30.20 in
Visibility 10.0 miles
Clouds Clear
Dew Point 40 °F
Humidity 59%
Rainfall 15.37 in
Snow Depth Not available.
UV 0 out of 12
Pollen 1.20 out of 12
Air Quality Not available.
Flu Activity Local Activity
METAR KPWK 050152Z 02004KT 10SM CLR 12/03 A3020 RMK AO2 SLP227 T01170033

More Conditions Fewer Conditions

Pressure 30.20 in
Visibility 10.0 miles
Clouds Clear
Dew Point 40 °F
Humidity 59%
Rainfall 15.37 in
Snow Depth Not available.
UV 0 out of 12
Pollen 1.20 out of 12
Air Quality Not available.
Flu Activity Local Activity
METAR KPWK 050152Z 02004KT 10SM CLR 12/03 A3020 RMK AO2 SLP227 T01170033

More Conditions Fewer Conditions

Nepal has a long way to go to dig out and rebuild from a devastating earthquake. We have teamed up with several charities and organizations to make contributing to the relief effort as easy as possible.
How you can help: Portlight Strategies | Red Cross

10-Day Weather Forecast

Almanac

Astronomy

May. 04, 2015 Rise Set
Actual Time
Civil Twilight
Nautical Twilight
Astronomical Twilight
Moon
Length of Visible Light
Length of Day
Tomorrow will be .
, % of the Moon is Illuminated

Today's Extremes

State Highs State Lows

Community

WunderPhotos

Upload Photos

1,818,783 photos uploaded!

WunderBlogs® & News

Nearby

Air Quality

  Air Quality AQ Index Pollutant
Not available.

Snow Depth

Station Depth Elevation

Earthquake Activity

City Distance Mag. Time & Date
Minimum magnitude displayed is 2.5.

Coastal Water Temperatures

Place Temperature

Stations

Nearby Weather Stations

Station Location Temp. Windchill Dew Point Humidity Wind Precip. Elev Updated Type